createdAt,value
2022-11-17T00:00:12.089Z,11.83
2022-11-17T00:02:39.137Z,7.17
2022-11-17T00:05:06.329Z,6.97
2022-11-17T00:07:33.382Z,11.17
2022-11-17T00:10:00.563Z,7.60
2022-11-17T00:12:46.267Z,8.93
2022-11-17T00:15:13.454Z,9.50
2022-11-17T00:17:40.361Z,7.33
2022-11-17T00:20:28.288Z,9.70
2022-11-17T00:22:55.782Z,9.03
2022-11-17T00:25:23.028Z,12.97
2022-11-17T00:27:49.924Z,6.20
2022-11-17T00:30:36.907Z,7.13
2022-11-17T00:33:23.671Z,7.63
2022-11-17T00:35:52.947Z,10.30
2022-11-17T00:38:20.052Z,8.40
2022-11-17T00:40:47.341Z,7.40
2022-11-17T00:43:14.163Z,7.77
2022-11-17T00:45:41.085Z,5.67
2022-11-17T00:48:08.177Z,9.70
2022-11-17T00:50:35.198Z,7.73
2022-11-17T00:53:02.171Z,6.97
2022-11-17T00:55:29.577Z,10.03
2022-11-17T00:57:56.649Z,8.30
2022-11-17T01:00:26.286Z,6.70
2022-11-17T01:02:53.527Z,10.77
2022-11-17T01:05:21.970Z,9.53
2022-11-17T01:07:51.011Z,6.87
2022-11-17T01:10:18.038Z,6.47
2022-11-17T01:12:45.649Z,6.13
2022-11-17T01:15:12.526Z,7.03
2022-11-17T01:17:39.680Z,8.07
2022-11-17T01:20:07.371Z,9.80
2022-11-17T01:22:34.567Z,7.53
2022-11-17T01:25:01.531Z,10.80
2022-11-17T01:27:28.478Z,8.93
2022-11-17T01:29:55.342Z,7.57
2022-11-17T01:32:22.209Z,6.27
2022-11-17T01:34:49.189Z,7.13
2022-11-17T01:37:21.870Z,6.40
2022-11-17T01:39:50.221Z,9.33
2022-11-17T01:42:26.338Z,13.70
2022-11-17T01:44:55.143Z,8.23
2022-11-17T01:47:42.205Z,6.63
2022-11-17T01:50:32.635Z,11.50
2022-11-17T01:53:04.109Z,6.13
2022-11-17T01:55:54.785Z,8.90
2022-11-17T01:58:33.243Z,6.47
2022-11-17T02:01:03.417Z,11.17
2022-11-17T02:03:36.928Z,7.93
2022-11-17T02:06:07.442Z,10.60
2022-11-17T02:08:53.044Z,9.70
2022-11-17T02:11:21.851Z,8.17
2022-11-17T02:13:55.190Z,9.80
2022-11-17T02:16:22.531Z,11.30
2022-11-17T02:18:52.560Z,8.50
2022-11-17T02:21:50.049Z,6.67
2022-11-17T02:24:49.997Z,11.70
2022-11-17T02:27:32.467Z,8.60
2022-11-17T02:30:16.840Z,9.50
2022-11-17T02:33:03.139Z,12.07
2022-11-17T02:35:56.013Z,12.00
2022-11-17T09:14:07.075Z,12.13
2022-11-17T09:16:34.913Z,11.25
2022-11-17T09:19:03.169Z,11.23
2022-11-17T09:21:31.843Z,10.57
2022-11-17T09:23:59.851Z,11.37
2022-11-17T09:26:30.181Z,8.83
2022-11-17T09:29:03.243Z,9.43
2022-11-17T09:31:31.011Z,9.43
2022-11-17T09:34:02.259Z,9.33
2022-11-17T09:36:32.373Z,9.77
2022-11-17T09:39:00.054Z,9.20
2022-11-17T09:41:43.703Z,8.93
2022-11-17T09:44:34.833Z,9.43
2022-11-17T09:47:22.402Z,8.60
2022-11-17T09:49:59.188Z,8.57
2022-11-17T09:52:50.756Z,10.40
2022-11-17T09:55:22.758Z,8.40
2022-11-17T09:58:11.584Z,10.63
2022-11-17T10:00:47.854Z,8.00
2022-11-17T10:03:20.887Z,9.70
2022-11-17T10:05:49.421Z,9.60
2022-11-17T10:08:25.820Z,8.27
2022-11-17T10:10:52.719Z,8.80
2022-11-17T15:02:29.219Z,5.93
2022-11-17T15:05:00.446Z,2.80
2022-11-17T15:07:33.938Z,4.23
2022-11-17T15:10:11.416Z,3.30
2022-11-17T15:12:39.151Z,4.27
2022-11-17T15:15:11.620Z,4.43
2022-11-17T15:17:51.064Z,3.87
2022-11-17T15:20:24.840Z,4.13
2022-11-17T15:23:05.730Z,4.87
2022-11-17T15:34:31.063Z,5.10
2022-11-17T15:37:14.555Z,6.03
2022-11-17T15:42:47.414Z,3.17
2022-11-17T15:51:41.549Z,4.37
2022-11-17T15:54:24.069Z,4.17
2022-11-17T15:56:58.470Z,5.90
2022-11-17T16:02:21.426Z,5.57
2022-11-17T16:04:48.686Z,5.70
2022-11-17T16:07:28.294Z,3.03
2022-11-17T16:10:06.669Z,3.70
2022-11-17T16:12:35.128Z,7.70
2022-11-17T16:15:02.723Z,5.93
2022-11-17T16:17:34.696Z,2.87
2022-11-17T16:20:12.475Z,4.97
2022-11-17T16:22:47.580Z,3.63
2022-11-17T16:25:14.570Z,3.37
2022-11-17T16:27:41.547Z,3.33
2022-11-17T16:30:09.261Z,4.70
2022-11-17T16:32:36.278Z,4.33
2022-11-17T16:35:03.803Z,7.03
2022-11-17T16:37:31.392Z,3.37
2022-11-17T16:40:07.769Z,3.43
2022-11-17T16:42:35.214Z,3.43
2022-11-17T16:45:02.554Z,6.53
2022-11-17T16:47:32.803Z,4.43
2022-11-17T16:50:00.153Z,5.17
2022-11-17T16:52:33.195Z,4.67
2022-11-17T16:55:04.548Z,3.93
2022-11-17T16:57:32.284Z,3.40
2022-11-17T16:59:59.362Z,4.03
2022-11-17T17:02:28.216Z,8.70
2022-11-17T17:05:01.340Z,4.80
2022-11-17T17:07:28.438Z,4.67
2022-11-17T17:09:55.600Z,5.10
2022-11-17T17:12:22.630Z,4.73
2022-11-17T17:14:50.655Z,5.97
2022-11-17T17:17:26.711Z,5.87
2022-11-17T17:19:54.932Z,10.23
2022-11-17T17:22:27.526Z,7.90
2022-11-17T17:24:54.953Z,6.83
2022-11-17T17:27:23.053Z,7.67
2022-11-17T17:29:57.253Z,6.80
2022-11-17T17:32:27.410Z,5.23
2022-11-17T17:34:58.915Z,6.83
2022-11-17T20:19:26.327Z,7.40
2022-11-17T20:21:53.532Z,7.60
2022-11-17T20:24:26.143Z,8.47
2022-11-17T20:26:57.386Z,5.60
2022-11-17T20:29:29.303Z,5.97
2022-11-17T20:32:01.524Z,6.77
2022-11-17T20:34:28.536Z,18.53
2022-11-17T20:36:55.717Z,9.27
2022-11-17T22:16:49.124Z,10.93
2022-11-17T22:19:17.943Z,9.70
2022-11-17T22:21:53.512Z,8.27
2022-11-17T22:24:39.486Z,9.63
2022-11-17T22:29:57.325Z,9.20
2022-11-17T22:32:24.630Z,12.17
2022-11-17T22:34:51.722Z,11.10
2022-11-17T22:37:21.079Z,10.03
2022-11-17T22:39:58.943Z,11.60
2022-11-17T22:42:43.057Z,9.63
2022-11-17T22:45:13.171Z,8.47
2022-11-17T22:47:42.370Z,10.87
2022-11-17T22:50:13.794Z,10.90
2022-11-17T22:52:45.217Z,9.63
2022-11-17T22:55:27.837Z,8.87
2022-11-17T22:58:10.224Z,13.57
2022-11-17T23:03:21.158Z,12.37
2022-11-17T23:05:49.049Z,12.83
2022-11-17T23:08:19.495Z,12.47
2022-11-17T23:10:49.490Z,11.83
2022-11-17T23:13:28.949Z,10.07
2022-11-17T23:18:37.709Z,15.33
2022-11-17T23:21:06.725Z,8.47
2022-11-17T23:23:35.604Z,11.90
2022-11-17T23:26:17.350Z,15.33
2022-11-17T23:28:51.392Z,12.30
2022-11-17T23:31:20.867Z,11.63
2022-11-17T23:33:50.170Z,13.83
2022-11-17T23:36:22.051Z,13.53
2022-11-17T23:38:53.242Z,12.30
2022-11-17T23:41:24.660Z,11.97
2022-11-17T23:43:53.796Z,11.30
2022-11-17T23:46:26.417Z,11.47
2022-11-17T23:48:57.832Z,12.43
2022-11-17T23:51:26.961Z,12.73
2022-11-17T23:53:59.596Z,9.70
2022-11-17T23:56:27.089Z,10.53
2022-11-17T23:58:56.909Z,10.13
